sensor_id;sensor_type;location;lat;lon;timestamp;pressure;altitude;pressure_sealevel;temperature
32039;BMP280;18549;42.286;22.688;2024-03-23T00:51:48;95732.66;;;10.27
32039;BMP280;18549;42.286;22.688;2024-03-23T00:54:14;95732.00;;;10.25
32039;BMP280;18549;42.286;22.688;2024-03-23T00:56:41;95737.72;;;10.25
32039;BMP280;18549;42.286;22.688;2024-03-23T00:59:08;95736.94;;;10.25
32039;BMP280;18549;42.286;22.688;2024-03-23T01:01:36;95732.16;;;10.22
32039;BMP280;18549;42.286;22.688;2024-03-23T01:04:02;95731.13;;;10.12
32039;BMP280;18549;42.286;22.688;2024-03-23T01:06:31;95732.81;;;10.12
32039;BMP280;18549;42.286;22.688;2024-03-23T01:08:58;95724.47;;;10.13
32039;BMP280;18549;42.286;22.688;2024-03-23T01:11:27;95722.12;;;10.11
32039;BMP280;18549;42.286;22.688;2024-03-23T01:13:53;95730.59;;;10.07
32039;BMP280;18549;42.286;22.688;2024-03-23T01:16:21;95728.13;;;10.07
32039;BMP280;18549;42.286;22.688;2024-03-23T01:18:47;95731.47;;;10.06
32039;BMP280;18549;42.286;22.688;2024-03-23T01:21:15;95731.66;;;10.03
32039;BMP280;18549;42.286;22.688;2024-03-23T01:23:41;95731.84;;;10.00
32039;BMP280;18549;42.286;22.688;2024-03-23T01:26:10;95732.19;;;9.94
32039;BMP280;18549;42.286;22.688;2024-03-23T01:28:35;95731.50;;;9.92
32039;BMP280;18549;42.286;22.688;2024-03-23T01:31:08;95737.94;;;9.95
32039;BMP280;18549;42.286;22.688;2024-03-23T01:33:35;95731.50;;;9.92
32039;BMP280;18549;42.286;22.688;2024-03-23T01:36:03;95726.09;;;9.86
32039;BMP280;18549;42.286;22.688;2024-03-23T01:38:30;95732.69;;;9.86
32039;BMP280;18549;42.286;22.688;2024-03-23T01:40:58;95732.09;;;9.82
32039;BMP280;18549;42.286;22.688;2024-03-23T01:43:27;95732.37;;;9.78
32039;BMP280;18549;42.286;22.688;2024-03-23T01:45:54;95729.19;;;9.76
32039;BMP280;18549;42.286;22.688;2024-03-23T01:48:21;95729.81;;;9.79
32039;BMP280;18549;42.286;22.688;2024-03-23T01:50:51;95730.59;;;9.80
32039;BMP280;18549;42.286;22.688;2024-03-23T01:53:18;95729.38;;;9.73
32039;BMP280;18549;42.286;22.688;2024-03-23T01:55:47;95732.72;;;9.72
32039;BMP280;18549;42.286;22.688;2024-03-23T01:58:13;95733.69;;;9.69
32039;BMP280;18549;42.286;22.688;2024-03-23T02:00:41;95729.19;;;9.48
32039;BMP280;18549;42.286;22.688;2024-03-23T02:03:22;95728.47;;;9.46
32039;BMP280;18549;42.286;22.688;2024-03-23T02:05:49;95733.34;;;9.48
32039;BMP280;18549;42.286;22.688;2024-03-23T02:08:15;95740.47;;;9.24
32039;BMP280;18549;42.286;22.688;2024-03-23T02:10:46;95743.47;;;9.29
32039;BMP280;18549;42.286;22.688;2024-03-23T02:13:12;95739.66;;;9.38
32039;BMP280;18549;42.286;22.688;2024-03-23T02:15:40;95744.62;;;9.38
32039;BMP280;18549;42.286;22.688;2024-03-23T02:18:07;95737.19;;;9.38
32039;BMP280;18549;42.286;22.688;2024-03-23T02:20:36;95734.16;;;9.19
32039;BMP280;18549;42.286;22.688;2024-03-23T02:23:03;95744.41;;;9.13
32039;BMP280;18549;42.286;22.688;2024-03-23T02:25:33;95745.81;;;9.17
32039;BMP280;18549;42.286;22.688;2024-03-23T02:28:00;95752.88;;;9.09
32039;BMP280;18549;42.286;22.688;2024-03-23T02:30:28;95751.59;;;8.88
32039;BMP280;18549;42.286;22.688;2024-03-23T02:32:54;95753.31;;;9.02
32039;BMP280;18549;42.286;22.688;2024-03-23T02:35:22;95753.13;;;9.05
32039;BMP280;18549;42.286;22.688;2024-03-23T02:37:48;95748.66;;;8.82
32039;BMP280;18549;42.286;22.688;2024-03-23T02:40:29;95755.16;;;8.83
32039;BMP280;18549;42.286;22.688;2024-03-23T02:42:55;95754.06;;;8.88
32039;BMP280;18549;42.286;22.688;2024-03-23T02:45:23;95750.38;;;8.95
32039;BMP280;18549;42.286;22.688;2024-03-23T02:47:50;95755.50;;;8.92
32039;BMP280;18549;42.286;22.688;2024-03-23T02:50:18;95752.91;;;8.94
32039;BMP280;18549;42.286;22.688;2024-03-23T02:52:43;95747.19;;;8.93
32039;BMP280;18549;42.286;22.688;2024-03-23T02:55:11;95758.56;;;8.96
32039;BMP280;18549;42.286;22.688;2024-03-23T02:57:40;95751.09;;;8.97
32039;BMP280;18549;42.286;22.688;2024-03-23T03:00:07;95755.06;;;9.00
32039;BMP280;18549;42.286;22.688;2024-03-23T03:02:33;95751.69;;;9.01
32039;BMP280;18549;42.286;22.688;2024-03-23T03:05:02;95747.72;;;8.98
32039;BMP280;18549;42.286;22.688;2024-03-23T03:07:29;95754.34;;;8.98
32039;BMP280;18549;42.286;22.688;2024-03-23T03:09:55;95751.09;;;8.97
32039;BMP280;18549;42.286;22.688;2024-03-23T03:12:23;95747.25;;;8.92
32039;BMP280;18549;42.286;22.688;2024-03-23T03:14:52;95749.00;;;8.90
32039;BMP280;18549;42.286;22.688;2024-03-23T03:17:19;95740.00;;;8.89
32039;BMP280;18549;42.286;22.688;2024-03-23T03:19:47;95735.16;;;8.88
32039;BMP280;18549;42.286;22.688;2024-03-23T03:22:13;95746.72;;;8.87
32039;BMP280;18549;42.286;22.688;2024-03-23T03:24:39;95743.47;;;8.87
32039;BMP280;18549;42.286;22.688;2024-03-23T03:27:06;95742.13;;;8.81
32039;BMP280;18549;42.286;22.688;2024-03-23T03:29:33;95751.62;;;8.73
32039;BMP280;18549;42.286;22.688;2024-03-23T03:32:02;95749.25;;;8.72
32039;BMP280;18549;42.286;22.688;2024-03-23T03:34:30;95746.13;;;8.68
32039;BMP280;18549;42.286;22.688;2024-03-23T03:36:56;95747.28;;;8.48
32039;BMP280;18549;42.286;22.688;2024-03-23T03:39:24;95744.97;;;8.45
32039;BMP280;18549;42.286;22.688;2024-03-23T03:41:50;95745.53;;;8.50
32039;BMP280;18549;42.286;22.688;2024-03-23T03:44:18;95747.19;;;8.49
32039;BMP280;18549;42.286;22.688;2024-03-23T03:46:45;95741.91;;;8.55
32039;BMP280;18549;42.286;22.688;2024-03-23T03:49:18;95747.75;;;8.54
32039;BMP280;18549;42.286;22.688;2024-03-23T03:51:44;95749.44;;;8.54
32039;BMP280;18549;42.286;22.688;2024-03-23T03:54:11;95749.44;;;8.54
32039;BMP280;18549;42.286;22.688;2024-03-23T03:56:38;95757.69;;;8.53
32039;BMP280;18549;42.286;22.688;2024-03-23T03:59:05;95754.69;;;8.48
32039;BMP280;18549;42.286;22.688;2024-03-23T04:01:30;95762.09;;;8.48
32039;BMP280;18549;42.286;22.688;2024-03-23T04:03:57;95759.78;;;8.45
32039;BMP280;18549;42.286;22.688;2024-03-23T04:06:27;95767.34;;;8.42
32039;BMP280;18549;42.286;22.688;2024-03-23T04:08:53;95759.94;;;8.42
32039;BMP280;18549;42.286;22.688;2024-03-23T04:11:19;95765.75;;;8.41
32039;BMP280;18549;42.286;22.688;2024-03-23T04:13:47;95768.53;;;8.35
32039;BMP280;18549;42.286;22.688;2024-03-23T04:16:24;95764.50;;;8.34
32039;BMP280;18549;42.286;22.688;2024-03-23T04:18:51;95771.34;;;8.29
32039;BMP280;18549;42.286;22.688;2024-03-23T04:21:17;95766.31;;;8.30
32039;BMP280;18549;42.286;22.688;2024-03-23T04:23:45;95772.06;;;8.31
32039;BMP280;18549;42.286;22.688;2024-03-23T04:26:10;95773.81;;;8.29
32039;BMP280;18549;42.286;22.688;2024-03-23T04:28:38;95776.41;;;8.26
32039;BMP280;18549;42.286;22.688;2024-03-23T04:31:03;95779.78;;;8.25
32039;BMP280;18549;42.286;22.688;2024-03-23T04:33:33;95775.72;;;8.24
32039;BMP280;18549;42.286;22.688;2024-03-23T04:35:59;95784.00;;;8.23
32039;BMP280;18549;42.286;22.688;2024-03-23T04:38:26;95785.91;;;8.18
32039;BMP280;18549;42.286;22.688;2024-03-23T04:40:58;95789.09;;;8.20
32039;BMP280;18549;42.286;22.688;2024-03-23T04:43:29;95792.44;;;8.19
32039;BMP280;18549;42.286;22.688;2024-03-23T04:45:56;95785.13;;;8.18
32039;BMP280;18549;42.286;22.688;2024-03-23T04:48:23;95789.97;;;8.19
32039;BMP280;18549;42.286;22.688;2024-03-23T04:50:49;95789.88;;;8.21
32039;BMP280;18549;42.286;22.688;2024-03-23T04:53:17;95787.59;;;8.18
32039;BMP280;18549;42.286;22.688;2024-03-23T04:55:45;95789.25;;;8.17
32039;BMP280;18549;42.286;22.688;2024-03-23T04:58:13;95795.00;;;8.18
32039;BMP280;18549;42.286;22.688;2024-03-23T05:00:38;95792.59;;;8.16
32039;BMP280;18549;42.286;22.688;2024-03-23T05:03:06;95790.84;;;8.18
32039;BMP280;18549;42.286;22.688;2024-03-23T05:05:32;95787.50;;;8.19
32039;BMP280;18549;42.286;22.688;2024-03-23T05:07:59;95785.91;;;8.18
32039;BMP280;18549;42.286;22.688;2024-03-23T05:10:26;95790.84;;;8.18
32039;BMP280;18549;42.286;22.688;2024-03-23T05:12:52;95780.81;;;8.21
32039;BMP280;18549;42.286;22.688;2024-03-23T05:15:20;95783.59;;;8.15
32039;BMP280;18549;42.286;22.688;2024-03-23T05:17:45;95782.72;;;8.16
32039;BMP280;18549;42.286;22.688;2024-03-23T05:20:12;95773.56;;;8.18
32039;BMP280;18549;42.286;22.688;2024-03-23T05:22:39;95778.34;;;8.21
32039;BMP280;18549;42.286;22.688;2024-03-23T05:25:09;95774.12;;;8.23
32039;BMP280;18549;42.286;22.688;2024-03-23T05:27:35;95777.06;;;8.29
32039;BMP280;18549;42.286;22.688;2024-03-23T05:30:02;95774.44;;;8.32
32039;BMP280;18549;42.286;22.688;2024-03-23T05:32:30;95780.03;;;8.36
32039;BMP280;18549;42.286;22.688;2024-03-23T05:34:57;95774.91;;;8.39
32039;BMP280;18549;42.286;22.688;2024-03-23T05:37:23;95779.56;;;8.45
32039;BMP280;18549;42.286;22.688;2024-03-23T05:39:49;95784.50;;;8.45
32039;BMP280;18549;42.286;22.688;2024-03-23T05:42:17;95777.78;;;8.47
32039;BMP280;18549;42.286;22.688;2024-03-23T05:44:44;95776.84;;;8.49
32039;BMP280;18549;42.286;22.688;2024-03-23T05:47:11;95772.53;;;8.53
32039;BMP280;18549;42.286;22.688;2024-03-23T05:49:46;95776.59;;;8.54
32039;BMP280;18549;42.286;22.688;2024-03-23T05:52:13;95773.88;;;8.58
32039;BMP280;18549;42.286;22.688;2024-03-23T05:54:40;95769.63;;;8.60
32039;BMP280;18549;42.286;22.688;2024-03-23T05:57:07;95772.94;;;8.60
32039;BMP280;18549;42.286;22.688;2024-03-23T05:59:34;95778.41;;;8.65
32039;BMP280;18549;42.286;22.688;2024-03-23T06:01:59;95768.38;;;8.68
32039;BMP280;18549;42.286;22.688;2024-03-23T06:04:26;95766.06;;;8.65
32039;BMP280;18549;42.286;22.688;2024-03-23T06:06:53;95766.53;;;8.72
32039;BMP280;18549;42.286;22.688;2024-03-23T06:09:21;95768.03;;;8.74
32039;BMP280;18549;42.286;22.688;2024-03-23T06:11:48;95762.28;;;8.74
32039;BMP280;18549;42.286;22.688;2024-03-23T06:14:16;95757.34;;;8.74
32039;BMP280;18549;42.286;22.688;2024-03-23T06:16:42;95756.56;;;8.73
32039;BMP280;18549;42.286;22.688;2024-03-23T06:19:08;95760.34;;;8.50
32039;BMP280;18549;42.286;22.688;2024-03-23T06:21:35;95761.78;;;8.23
32039;BMP280;18549;42.286;22.688;2024-03-23T06:24:05;95761.06;;;8.21
32039;BMP280;18549;42.286;22.688;2024-03-23T06:26:31;95758.81;;;8.17
32039;BMP280;18549;42.286;22.688;2024-03-23T06:28:57;95763.72;;;8.01
32039;BMP280;18549;42.286;22.688;2024-03-23T06:31:24;95760.94;;;8.07
32039;BMP280;18549;42.286;22.688;2024-03-23T06:33:49;95759.94;;;8.11
32039;BMP280;18549;42.286;22.688;2024-03-23T06:36:16;95758.50;;;8.23
32039;BMP280;18549;42.286;22.688;2024-03-23T06:38:42;95763.16;;;8.28
32039;BMP280;18549;42.286;22.688;2024-03-23T06:41:10;95755.31;;;8.21
32039;BMP280;18549;42.286;22.688;2024-03-23T06:43:37;95755.16;;;8.08
32039;BMP280;18549;42.286;22.688;2024-03-23T06:46:03;95757.72;;;8.22
32039;BMP280;18549;42.286;22.688;2024-03-23T06:48:29;95758.19;;;8.44
32039;BMP280;18549;42.286;22.688;2024-03-23T06:50:56;95760.81;;;8.56
32039;BMP280;18549;42.286;22.688;2024-03-23T06:53:22;95763.41;;;8.68
32039;BMP280;18549;42.286;22.688;2024-03-23T06:55:50;95758.41;;;8.70
32039;BMP280;18549;42.286;22.688;2024-03-23T06:58:19;95752.28;;;8.61
32039;BMP280;18549;42.286;22.688;2024-03-23T07:00:45;95754.31;;;8.69
32039;BMP280;18549;42.286;22.688;2024-03-23T07:03:13;95751.28;;;8.79
32039;BMP280;18549;42.286;22.688;2024-03-23T07:05:39;95758.31;;;9.00
32039;BMP280;18549;42.286;22.688;2024-03-23T07:08:05;95750.22;;;9.12
32039;BMP280;18549;42.286;22.688;2024-03-23T07:10:32;95745.56;;;9.21
32039;BMP280;18549;42.286;22.688;2024-03-23T07:12:58;95746.81;;;9.28
32039;BMP280;18549;42.286;22.688;2024-03-23T07:15:26;95742.31;;;9.21
32039;BMP280;18549;42.286;22.688;2024-03-23T07:17:52;95737.97;;;9.11
32039;BMP280;18549;42.286;22.688;2024-03-23T07:20:19;95742.63;;;9.15
32039;BMP280;18549;42.286;22.688;2024-03-23T07:22:45;95735.53;;;9.24
32039;BMP280;18549;42.286;22.688;2024-03-23T07:25:12;95724.75;;;9.39
32039;BMP280;18549;42.286;22.688;2024-03-23T07:27:38;95724.69;;;9.41
32039;BMP280;18549;42.286;22.688;2024-03-23T07:30:06;95724.03;;;9.51
32039;BMP280;18549;42.286;22.688;2024-03-23T07:32:34;95718.37;;;9.49
32039;BMP280;18549;42.286;22.688;2024-03-23T07:35:01;95727.16;;;9.68
32039;BMP280;18549;42.286;22.688;2024-03-23T07:37:26;95721.41;;;9.82
32039;BMP280;18549;42.286;22.688;2024-03-23T07:39:53;95718.25;;;9.93
32039;BMP280;18549;42.286;22.688;2024-03-23T07:42:19;95716.47;;;9.95
32039;BMP280;18549;42.286;22.688;2024-03-23T07:44:46;95710.53;;;9.98
32039;BMP280;18549;42.286;22.688;2024-03-23T07:47:12;95714.69;;;10.11
32039;BMP280;18549;42.286;22.688;2024-03-23T07:49:40;95710.37;;;10.27
32039;BMP280;18549;42.286;22.688;2024-03-23T07:52:05;95693.09;;;10.39
32039;BMP280;18549;42.286;22.688;2024-03-23T07:54:33;95711.44;;;10.37
32039;BMP280;18549;42.286;22.688;2024-03-23T07:56:59;95695.66;;;10.38
32039;BMP280;18549;42.286;22.688;2024-03-23T07:59:25;95693.69;;;10.69
32039;BMP280;18549;42.286;22.688;2024-03-23T08:01:51;95680.56;;;11.18
32039;BMP280;18549;42.286;22.688;2024-03-23T08:04:18;95674.41;;;11.11
32039;BMP280;18549;42.286;22.688;2024-03-23T08:06:47;95683.16;;;11.16
32039;BMP280;18549;42.286;22.688;2024-03-23T08:09:12;95678.56;;;11.22
32039;BMP280;18549;42.286;22.688;2024-03-23T08:11:39;95674.63;;;11.32
32039;BMP280;18549;42.286;22.688;2024-03-23T08:14:05;95675.62;;;11.42
32039;BMP280;18549;42.286;22.688;2024-03-23T08:16:31;95674.03;;;11.41
32039;BMP280;18549;42.286;22.688;2024-03-23T08:18:59;95675.12;;;11.37
32039;BMP280;18549;42.286;22.688;2024-03-23T08:21:25;95669.06;;;11.41
32039;BMP280;18549;42.286;22.688;2024-03-23T08:23:53;95674.44;;;11.60
32039;BMP280;18549;42.286;22.688;2024-03-23T08:26:18;95668.34;;;11.64
32039;BMP280;18549;42.286;22.688;2024-03-23T08:28:45;95664.37;;;11.74
32039;BMP280;18549;42.286;22.688;2024-03-23T08:31:12;95659.84;;;11.91
32039;BMP280;18549;42.286;22.688;2024-03-23T08:33:40;95660.19;;;11.74
32039;BMP280;18549;42.286;22.688;2024-03-23T08:36:09;95653.84;;;11.70
32039;BMP280;18549;42.286;22.688;2024-03-23T08:38:37;95652.91;;;11.96
32039;BMP280;18549;42.286;22.688;2024-03-23T08:41:06;95644.62;;;12.08
32039;BMP280;18549;42.286;22.688;2024-03-23T08:43:35;95647.84;;;12.20
32039;BMP280;18549;42.286;22.688;2024-03-23T08:46:04;95641.97;;;12.21
32039;BMP280;18549;42.286;22.688;2024-03-23T08:48:31;95639.00;;;12.40
32039;BMP280;18549;42.286;22.688;2024-03-23T08:51:01;95634.28;;;12.48
32039;BMP280;18549;42.286;22.688;2024-03-23T08:53:28;95632.91;;;12.44
32039;BMP280;18549;42.286;22.688;2024-03-23T08:55:54;95625.09;;;12.37
32039;BMP280;18549;42.286;22.688;2024-03-23T08:58:23;95625.94;;;12.49
32039;BMP280;18549;42.286;22.688;2024-03-23T09:00:49;95618.25;;;12.52
32039;BMP280;18549;42.286;22.688;2024-03-23T09:03:16;95605.22;;;12.71
32039;BMP280;18549;42.286;22.688;2024-03-23T09:05:42;95609.56;;;12.91
32039;BMP280;18549;42.286;22.688;2024-03-23T09:08:09;95609.03;;;12.87
32039;BMP280;18549;42.286;22.688;2024-03-23T09:10:37;95602.47;;;12.97
32039;BMP280;18549;42.286;22.688;2024-03-23T09:13:04;95592.62;;;13.07
32039;BMP280;18549;42.286;22.688;2024-03-23T09:15:32;95587.22;;;13.13
32039;BMP280;18549;42.286;22.688;2024-03-23T09:17:59;95579.06;;;13.32
32039;BMP280;18549;42.286;22.688;2024-03-23T09:20:25;95582.22;;;13.34
32039;BMP280;18549;42.286;22.688;2024-03-23T09:22:51;95576.34;;;13.46
32039;BMP280;18549;42.286;22.688;2024-03-23T09:25:17;95558.91;;;13.57
32039;BMP280;18549;42.286;22.688;2024-03-23T09:27:45;95556.94;;;13.71
32039;BMP280;18549;42.286;22.688;2024-03-23T09:30:12;95548.78;;;13.80
32039;BMP280;18549;42.286;22.688;2024-03-23T09:32:42;95540.06;;;13.85
32039;BMP280;18549;42.286;22.688;2024-03-23T09:35:14;95538.84;;;14.11
32039;BMP280;18549;42.286;22.688;2024-03-23T09:37:49;95528.97;;;14.20
32039;BMP280;18549;42.286;22.688;2024-03-23T09:40:15;95532.59;;;14.17
32039;BMP280;18549;42.286;22.688;2024-03-23T09:42:42;95530.28;;;14.04
32039;BMP280;18549;42.286;22.688;2024-03-23T09:45:17;95519.97;;;14.29
32039;BMP280;18549;42.286;22.688;2024-03-23T09:47:45;95510.19;;;14.37
32039;BMP280;18549;42.286;22.688;2024-03-23T09:50:12;95507.06;;;14.44
32039;BMP280;18549;42.286;22.688;2024-03-23T09:52:39;95504.03;;;14.61
32039;BMP280;18549;42.286;22.688;2024-03-23T09:55:06;95503.16;;;14.71
32039;BMP280;18549;42.286;22.688;2024-03-23T09:57:32;95494.25;;;14.78
32039;BMP280;18549;42.286;22.688;2024-03-23T09:59:58;95487.06;;;14.84
32039;BMP280;18549;42.286;22.688;2024-03-23T10:02:25;95484.88;;;14.91
32039;BMP280;18549;42.286;22.688;2024-03-23T10:04:53;95478.63;;;15.06
32039;BMP280;18549;42.286;22.688;2024-03-23T10:07:20;95470.81;;;15.19
32039;BMP280;18549;42.286;22.688;2024-03-23T10:09:47;95466.87;;;15.26
32039;BMP280;18549;42.286;22.688;2024-03-23T10:12:17;95464.28;;;15.37
32039;BMP280;18549;42.286;22.688;2024-03-23T10:14:43;95445.91;;;15.48
32039;BMP280;18549;42.286;22.688;2024-03-23T10:17:14;95450.66;;;15.60
32039;BMP280;18549;42.286;22.688;2024-03-23T10:19:40;95438.16;;;15.60
32039;BMP280;18549;42.286;22.688;2024-03-23T10:22:09;95440.38;;;15.72
32039;BMP280;18549;42.286;22.688;2024-03-23T10:24:35;95428.03;;;15.89
32039;BMP280;18549;42.286;22.688;2024-03-23T10:27:02;95427.63;;;16.03
32039;BMP280;18549;42.286;22.688;2024-03-23T10:29:27;95427.72;;;16.11
32039;BMP280;18549;42.286;22.688;2024-03-23T10:31:57;95419.31;;;16.12
32039;BMP280;18549;42.286;22.688;2024-03-23T10:34:32;95416.16;;;16.29
32039;BMP280;18549;42.286;22.688;2024-03-23T10:37:01;95407.56;;;16.41
32039;BMP280;18549;42.286;22.688;2024-03-23T10:39:30;95402.41;;;16.51
32039;BMP280;18549;42.286;22.688;2024-03-23T10:41:57;95398.00;;;16.63
32039;BMP280;18549;42.286;22.688;2024-03-23T10:44:23;95393.62;;;16.74
32039;BMP280;18549;42.286;22.688;2024-03-23T10:46:54;95373.72;;;16.99
32039;BMP280;18549;42.286;22.688;2024-03-23T10:49:25;95377.66;;;17.02
32039;BMP280;18549;42.286;22.688;2024-03-23T10:51:53;95382.22;;;16.89
32039;BMP280;18549;42.286;22.688;2024-03-23T10:54:19;95367.53;;;17.03
32039;BMP280;18549;42.286;22.688;2024-03-23T10:56:51;95363.81;;;17.07
32039;BMP280;18549;42.286;22.688;2024-03-23T10:59:18;95354.22;;;17.03
32039;BMP280;18549;42.286;22.688;2024-03-23T11:01:55;95347.12;;;16.98
32039;BMP280;18549;42.286;22.688;2024-03-23T11:04:29;95345.75;;;17.04
32039;BMP280;18549;42.286;22.688;2024-03-23T11:06:57;95337.94;;;17.33
32039;BMP280;18549;42.286;22.688;2024-03-23T11:09:38;95326.28;;;17.24
32039;BMP280;18549;42.286;22.688;2024-03-23T11:12:18;95323.34;;;17.46
32039;BMP280;18549;42.286;22.688;2024-03-23T11:14:51;95319.34;;;17.53
32039;BMP280;18549;42.286;22.688;2024-03-23T11:17:18;95308.19;;;17.73
32039;BMP280;18549;42.286;22.688;2024-03-23T11:19:52;95300.47;;;17.91
32039;BMP280;18549;42.286;22.688;2024-03-23T11:22:38;95291.97;;;17.84
32039;BMP280;18549;42.286;22.688;2024-03-23T11:25:08;95291.91;;;18.19
32039;BMP280;18549;42.286;22.688;2024-03-23T11:27:40;95290.97;;;18.20
32039;BMP280;18549;42.286;22.688;2024-03-23T11:30:12;95277.19;;;18.24
32039;BMP280;18549;42.286;22.688;2024-03-23T11:32:39;95278.59;;;18.26
32039;BMP280;18549;42.286;22.688;2024-03-23T11:35:07;95276.84;;;18.19
32039;BMP280;18549;42.286;22.688;2024-03-23T11:37:36;95260.75;;;18.29
32039;BMP280;18549;42.286;22.688;2024-03-23T11:40:16;95266.84;;;18.27
32039;BMP280;18549;42.286;22.688;2024-03-23T11:42:46;95269.50;;;18.25
32039;BMP280;18549;42.286;22.688;2024-03-23T11:45:12;95256.50;;;18.30
32039;BMP280;18549;42.286;22.688;2024-03-23T11:47:39;95249.97;;;18.45
32039;BMP280;18549;42.286;22.688;2024-03-23T11:50:06;95240.28;;;18.57
32039;BMP280;18549;42.286;22.688;2024-03-23T11:52:33;95240.81;;;18.84
32039;BMP280;18549;42.286;22.688;2024-03-23T11:55:08;95233.78;;;18.88
32039;BMP280;18549;42.286;22.688;2024-03-23T11:57:35;95226.69;;;18.83
32039;BMP280;18549;42.286;22.688;2024-03-23T12:00:20;95223.91;;;19.02
32039;BMP280;18549;42.286;22.688;2024-03-23T12:02:47;95206.94;;;18.96
32039;BMP280;18549;42.286;22.688;2024-03-23T12:05:17;95209.44;;;18.88
32039;BMP280;18549;42.286;22.688;2024-03-23T12:07:44;95209.28;;;18.90
32039;BMP280;18549;42.286;22.688;2024-03-23T12:10:11;95208.84;;;19.10
32039;BMP280;18549;42.286;22.688;2024-03-23T12:12:39;95202.25;;;19.09
32039;BMP280;18549;42.286;22.688;2024-03-23T12:15:07;95195.62;;;19.24
32039;BMP280;18549;42.286;22.688;2024-03-23T12:17:34;95182.28;;;19.47
32039;BMP280;18549;42.286;22.688;2024-03-23T12:20:00;95180.69;;;19.62
32039;BMP280;18549;42.286;22.688;2024-03-23T12:22:27;95182.75;;;19.50
32039;BMP280;18549;42.286;22.688;2024-03-23T12:24:55;95171.59;;;19.45
32039;BMP280;18549;42.286;22.688;2024-03-23T12:27:22;95178.66;;;19.42
32039;BMP280;18549;42.286;22.688;2024-03-23T12:29:49;95172.84;;;19.57
32039;BMP280;18549;42.286;22.688;2024-03-23T12:32:17;95160.66;;;19.92
32039;BMP280;18549;42.286;22.688;2024-03-23T12:34:44;95151.00;;;20.11
32039;BMP280;18549;42.286;22.688;2024-03-23T12:37:12;95152.41;;;20.06
32039;BMP280;18549;42.286;22.688;2024-03-23T12:39:39;95154.56;;;19.86
32039;BMP280;18549;42.286;22.688;2024-03-23T12:42:06;95146.53;;;19.91
32039;BMP280;18549;42.286;22.688;2024-03-23T12:44:33;95141.97;;;19.86
32039;BMP280;18549;42.286;22.688;2024-03-23T12:47:00;95139.47;;;19.79
32039;BMP280;18549;42.286;22.688;2024-03-23T12:49:28;95136.81;;;19.80
32039;BMP280;18549;42.286;22.688;2024-03-23T12:51:56;95125.22;;;19.63
32039;BMP280;18549;42.286;22.688;2024-03-23T12:54:23;95120.69;;;19.59
32039;BMP280;18549;42.286;22.688;2024-03-23T12:56:50;95122.50;;;19.73
32039;BMP280;18549;42.286;22.688;2024-03-23T12:59:16;95113.56;;;19.70
32039;BMP280;18549;42.286;22.688;2024-03-23T13:01:43;95118.44;;;19.64
32039;BMP280;18549;42.286;22.688;2024-03-23T13:04:09;95116.06;;;19.70
32039;BMP280;18549;42.286;22.688;2024-03-23T13:06:38;95112.91;;;19.76
32039;BMP280;18549;42.286;22.688;2024-03-23T13:09:04;95120.78;;;19.81
32039;BMP280;18549;42.286;22.688;2024-03-23T13:11:34;95111.78;;;19.86
32039;BMP280;18549;42.286;22.688;2024-03-23T13:14:00;95108.31;;;19.87
32039;BMP280;18549;42.286;22.688;2024-03-23T13:16:28;95097.53;;;19.71
32039;BMP280;18549;42.286;22.688;2024-03-23T13:18:55;95092.78;;;19.76
32039;BMP280;18549;42.286;22.688;2024-03-23T13:21:22;95090.16;;;19.78
32039;BMP280;18549;42.286;22.688;2024-03-23T13:23:49;95088.44;;;19.62
32039;BMP280;18549;42.286;22.688;2024-03-23T13:26:16;95082.53;;;19.48
32039;BMP280;18549;42.286;22.688;2024-03-23T13:28:42;95079.53;;;19.52
32039;BMP280;18549;42.286;22.688;2024-03-23T13:31:10;95079.53;;;19.44
32039;BMP280;18549;42.286;22.688;2024-03-23T13:33:35;95079.00;;;19.26
32039;BMP280;18549;42.286;22.688;2024-03-23T13:36:03;95069.19;;;19.39
32039;BMP280;18549;42.286;22.688;2024-03-23T13:38:28;95067.53;;;19.70
32039;BMP280;18549;42.286;22.688;2024-03-23T13:40:58;95067.38;;;20.01
32039;BMP280;18549;42.286;22.688;2024-03-23T13:43:24;95055.94;;;20.21
32039;BMP280;18549;42.286;22.688;2024-03-23T13:45:53;95059.59;;;20.41
32039;BMP280;18549;42.286;22.688;2024-03-23T13:48:19;95052.66;;;20.65
32039;BMP280;18549;42.286;22.688;2024-03-23T13:50:46;95050.50;;;20.76
32039;BMP280;18549;42.286;22.688;2024-03-23T13:53:13;95053.50;;;20.94
32039;BMP280;18549;42.286;22.688;2024-03-23T13:55:46;95028.31;;;20.94
32039;BMP280;18549;42.286;22.688;2024-03-23T13:58:13;95043.78;;;21.05
32039;BMP280;18549;42.286;22.688;2024-03-23T14:00:40;95033.53;;;21.21
32039;BMP280;18549;42.286;22.688;2024-03-23T14:03:07;95034.66;;;21.33
32039;BMP280;18549;42.286;22.688;2024-03-23T14:05:33;95025.28;;;21.55
32039;BMP280;18549;42.286;22.688;2024-03-23T14:07:59;95030.00;;;21.44
32039;BMP280;18549;42.286;22.688;2024-03-23T14:10:26;95020.44;;;21.40
32039;BMP280;18549;42.286;22.688;2024-03-23T14:12:52;95020.31;;;21.33
32039;BMP280;18549;42.286;22.688;2024-03-23T14:15:21;95017.56;;;21.14
32039;BMP280;18549;42.286;22.688;2024-03-23T14:17:46;95019.09;;;21.01
32039;BMP280;18549;42.286;22.688;2024-03-23T14:20:13;95020.03;;;20.85
32039;BMP280;18549;42.286;22.688;2024-03-23T14:22:39;95025.16;;;20.63
32039;BMP280;18549;42.286;22.688;2024-03-23T14:25:07;95018.38;;;20.42
32039;BMP280;18549;42.286;22.688;2024-03-23T14:27:33;95019.75;;;20.22
32039;BMP280;18549;42.286;22.688;2024-03-23T14:30:03;95015.34;;;20.24
32039;BMP280;18549;42.286;22.688;2024-03-23T14:32:30;95015.41;;;20.16
32039;BMP280;18549;42.286;22.688;2024-03-23T14:34:59;95014.00;;;19.91
32039;BMP280;18549;42.286;22.688;2024-03-23T14:37:25;95009.34;;;19.81
32039;BMP280;18549;42.286;22.688;2024-03-23T14:39:52;95006.06;;;19.72
32039;BMP280;18549;42.286;22.688;2024-03-23T14:42:17;95013.03;;;19.62
32039;BMP280;18549;42.286;22.688;2024-03-23T14:44:44;95010.97;;;19.66
32039;BMP280;18549;42.286;22.688;2024-03-23T14:47:10;95003.78;;;19.55
32039;BMP280;18549;42.286;22.688;2024-03-23T14:49:39;94992.34;;;19.52
32039;BMP280;18549;42.286;22.688;2024-03-23T14:52:05;95003.50;;;19.50
32039;BMP280;18549;42.286;22.688;2024-03-23T14:54:32;95001.19;;;19.41